sensor_id;sensor_type;location;lat;lon;timestamp;P1;durP1;ratioP1;P2;durP2;ratioP2
5989;SDS011;14149;53.562;10.032;2022-11-27T00:01:45;38.53;;;18.67;;
5989;SDS011;14149;53.562;10.032;2022-11-27T00:04:11;35.63;;;15.07;;
5989;SDS011;14149;53.562;10.032;2022-11-27T00:06:38;42.70;;;15.30;;
5989;SDS011;14149;53.562;10.032;2022-11-27T00:09:07;33.77;;;14.43;;
5989;SDS011;14149;53.562;10.032;2022-11-27T00:11:33;31.67;;;14.70;;
5989;SDS011;14149;53.562;10.032;2022-11-27T00:14:00;37.77;;;16.70;;
5989;SDS011;14149;53.562;10.032;2022-11-27T00:16:26;25.87;;;12.80;;
5989;SDS011;14149;53.562;10.032;2022-11-27T00:18:52;25.47;;;14.53;;
5989;SDS011;14149;53.562;10.032;2022-11-27T00:21:20;25.13;;;14.70;;
5989;SDS011;14149;53.562;10.032;2022-11-27T00:23:47;33.93;;;14.10;;
5989;SDS011;14149;53.562;10.032;2022-11-27T00:26:13;33.77;;;14.60;;
5989;SDS011;14149;53.562;10.032;2022-11-27T00:28:39;33.33;;;13.80;;
5989;SDS011;14149;53.562;10.032;2022-11-27T00:31:17;44.67;;;16.97;;
5989;SDS011;14149;53.562;10.032;2022-11-27T00:33:44;54.57;;;25.80;;
5989;SDS011;14149;53.562;10.032;2022-11-27T00:36:10;50.27;;;19.73;;
5989;SDS011;14149;53.562;10.032;2022-11-27T00:38:37;35.47;;;14.97;;
5989;SDS011;14149;53.562;10.032;2022-11-27T00:43:32;32.33;;;13.13;;
5989;SDS011;14149;53.562;10.032;2022-11-27T00:45:58;27.50;;;12.07;;
5989;SDS011;14149;53.562;10.032;2022-11-27T00:48:25;31.67;;;13.27;;
5989;SDS011;14149;53.562;10.032;2022-11-27T00:50:51;33.40;;;13.00;;
5989;SDS011;14149;53.562;10.032;2022-11-27T00:53:17;29.60;;;11.60;;
5989;SDS011;14149;53.562;10.032;2022-11-27T00:55:44;31.40;;;12.70;;
5989;SDS011;14149;53.562;10.032;2022-11-27T00:58:11;29.97;;;12.60;;
5989;SDS011;14149;53.562;10.032;2022-11-27T01:00:37;37.73;;;13.00;;
5989;SDS011;14149;53.562;10.032;2022-11-27T01:03:03;38.40;;;15.60;;
5989;SDS011;14149;53.562;10.032;2022-11-27T01:05:29;35.23;;;15.17;;
5989;SDS011;14149;53.562;10.032;2022-11-27T01:07:55;32.83;;;12.60;;
5989;SDS011;14149;53.562;10.032;2022-11-27T01:10:21;26.87;;;11.80;;
5989;SDS011;14149;53.562;10.032;2022-11-27T01:12:48;31.10;;;11.60;;
5989;SDS011;14149;53.562;10.032;2022-11-27T01:15:14;27.30;;;11.47;;
5989;SDS011;14149;53.562;10.032;2022-11-27T01:17:40;35.10;;;12.67;;
5989;SDS011;14149;53.562;10.032;2022-11-27T01:20:06;39.03;;;11.73;;
5989;SDS011;14149;53.562;10.032;2022-11-27T01:22:32;24.60;;;12.33;;
5989;SDS011;14149;53.562;10.032;2022-11-27T01:24:58;32.67;;;11.37;;
5989;SDS011;14149;53.562;10.032;2022-11-27T01:27:25;29.47;;;10.80;;
5989;SDS011;14149;53.562;10.032;2022-11-27T01:29:51;21.33;;;12.00;;
5989;SDS011;14149;53.562;10.032;2022-11-27T01:32:17;29.50;;;10.93;;
5989;SDS011;14149;53.562;10.032;2022-11-27T01:34:43;23.83;;;11.43;;
5989;SDS011;14149;53.562;10.032;2022-11-27T01:37:09;27.83;;;12.83;;
5989;SDS011;14149;53.562;10.032;2022-11-27T01:39:35;21.70;;;10.77;;
5989;SDS011;14149;53.562;10.032;2022-11-27T01:42:01;24.20;;;11.57;;
5989;SDS011;14149;53.562;10.032;2022-11-27T01:46:58;17.17;;;9.77;;
5989;SDS011;14149;53.562;10.032;2022-11-27T01:49:38;21.50;;;10.93;;
5989;SDS011;14149;53.562;10.032;2022-11-27T01:52:08;25.73;;;10.20;;
5989;SDS011;14149;53.562;10.032;2022-11-27T01:54:40;24.03;;;9.20;;
5989;SDS011;14149;53.562;10.032;2022-11-27T01:57:29;31.03;;;11.30;;
5989;SDS011;14149;53.562;10.032;2022-11-27T01:59:55;36.10;;;15.50;;
5989;SDS011;14149;53.562;10.032;2022-11-27T02:02:21;27.60;;;11.10;;
5989;SDS011;14149;53.562;10.032;2022-11-27T02:04:47;28.70;;;11.73;;
5989;SDS011;14149;53.562;10.032;2022-11-27T02:07:14;21.73;;;9.87;;
5989;SDS011;14149;53.562;10.032;2022-11-27T02:09:40;25.20;;;11.43;;
5989;SDS011;14149;53.562;10.032;2022-11-27T02:17:35;18.53;;;9.13;;
5989;SDS011;14149;53.562;10.032;2022-11-27T02:30:33;27.33;;;10.83;;
5989;SDS011;14149;53.562;10.032;2022-11-27T02:33:02;26.70;;;10.70;;
5989;SDS011;14149;53.562;10.032;2022-11-27T02:35:34;22.17;;;10.17;;
5989;SDS011;14149;53.562;10.032;2022-11-27T02:38:05;20.77;;;10.87;;
5989;SDS011;14149;53.562;10.032;2022-11-27T02:40:38;22.47;;;10.80;;
5989;SDS011;14149;53.562;10.032;2022-11-27T02:43:07;19.40;;;10.70;;
5989;SDS011;14149;53.562;10.032;2022-11-27T02:45:38;21.30;;;9.90;;
5989;SDS011;14149;53.562;10.032;2022-11-27T02:48:05;23.43;;;11.20;;
5989;SDS011;14149;53.562;10.032;2022-11-27T02:50:32;29.43;;;11.20;;
5989;SDS011;14149;53.562;10.032;2022-11-27T02:53:00;24.20;;;12.23;;
5989;SDS011;14149;53.562;10.032;2022-11-27T02:55:29;23.50;;;11.37;;
5989;SDS011;14149;53.562;10.032;2022-11-27T02:57:56;19.30;;;10.30;;
5989;SDS011;14149;53.562;10.032;2022-11-27T03:00:23;54.43;;;23.20;;
5989;SDS011;14149;53.562;10.032;2022-11-27T03:02:59;33.43;;;13.63;;
5989;SDS011;14149;53.562;10.032;2022-11-27T03:05:27;21.67;;;10.20;;
5989;SDS011;14149;53.562;10.032;2022-11-27T03:08:08;24.83;;;10.40;;
5989;SDS011;14149;53.562;10.032;2022-11-27T03:13:01;21.10;;;9.00;;
5989;SDS011;14149;53.562;10.032;2022-11-27T03:15:36;23.10;;;11.33;;
5989;SDS011;14149;53.562;10.032;2022-11-27T03:18:11;22.10;;;12.27;;
5989;SDS011;14149;53.562;10.032;2022-11-27T03:20:39;25.37;;;11.10;;
5989;SDS011;14149;53.562;10.032;2022-11-27T03:23:07;28.37;;;11.33;;
5989;SDS011;14149;53.562;10.032;2022-11-27T03:25:33;26.37;;;11.17;;
5989;SDS011;14149;53.562;10.032;2022-11-27T03:28:00;24.17;;;10.77;;
5989;SDS011;14149;53.562;10.032;2022-11-27T03:30:27;22.00;;;10.83;;
5989;SDS011;14149;53.562;10.032;2022-11-27T03:32:54;40.43;;;18.37;;
5989;SDS011;14149;53.562;10.032;2022-11-27T03:35:20;31.23;;;14.23;;
5989;SDS011;14149;53.562;10.032;2022-11-27T03:37:47;28.73;;;10.57;;
5989;SDS011;14149;53.562;10.032;2022-11-27T03:40:14;23.57;;;10.03;;
5989;SDS011;14149;53.562;10.032;2022-11-27T03:43:43;19.10;;;9.73;;
5989;SDS011;14149;53.562;10.032;2022-11-27T03:45:49;19.70;;;10.20;;
5989;SDS011;14149;53.562;10.032;2022-11-27T03:51:20;22.30;;;10.43;;
5989;SDS011;14149;53.562;10.032;2022-11-27T03:56:33;20.57;;;10.90;;
5989;SDS011;14149;53.562;10.032;2022-11-27T03:59:08;19.03;;;10.20;;
5989;SDS011;14149;53.562;10.032;2022-11-27T04:01:36;21.20;;;10.00;;
5989;SDS011;14149;53.562;10.032;2022-11-27T04:04:03;18.33;;;9.87;;
5989;SDS011;14149;53.562;10.032;2022-11-27T04:06:29;22.70;;;10.50;;
5989;SDS011;14149;53.562;10.032;2022-11-27T04:08:55;24.87;;;10.30;;
5989;SDS011;14149;53.562;10.032;2022-11-27T04:11:21;17.13;;;9.57;;
5989;SDS011;14149;53.562;10.032;2022-11-27T04:13:48;25.77;;;11.60;;
5989;SDS011;14149;53.562;10.032;2022-11-27T04:16:16;31.10;;;11.50;;
5989;SDS011;14149;53.562;10.032;2022-11-27T04:18:42;25.87;;;11.27;;
5989;SDS011;14149;53.562;10.032;2022-11-27T04:21:08;24.70;;;12.10;;
5989;SDS011;14149;53.562;10.032;2022-11-27T04:23:35;16.83;;;10.13;;
5989;SDS011;14149;53.562;10.032;2022-11-27T04:26:02;21.83;;;11.37;;
5989;SDS011;14149;53.562;10.032;2022-11-27T04:28:29;25.47;;;12.10;;
5989;SDS011;14149;53.562;10.032;2022-11-27T04:30:55;26.67;;;11.00;;
5989;SDS011;14149;53.562;10.032;2022-11-27T04:33:21;34.57;;;12.00;;
5989;SDS011;14149;53.562;10.032;2022-11-27T04:35:47;22.60;;;10.50;;
5989;SDS011;14149;53.562;10.032;2022-11-27T04:38:14;25.60;;;10.70;;
5989;SDS011;14149;53.562;10.032;2022-11-27T04:40:40;19.63;;;12.07;;
5989;SDS011;14149;53.562;10.032;2022-11-27T04:43:06;23.37;;;11.23;;
5989;SDS011;14149;53.562;10.032;2022-11-27T04:45:32;17.97;;;10.07;;
5989;SDS011;14149;53.562;10.032;2022-11-27T04:47:58;22.00;;;11.00;;
5989;SDS011;14149;53.562;10.032;2022-11-27T04:50:24;20.47;;;12.13;;
5989;SDS011;14149;53.562;10.032;2022-11-27T04:52:50;22.57;;;10.80;;
5989;SDS011;14149;53.562;10.032;2022-11-27T04:55:16;26.03;;;11.07;;
5989;SDS011;14149;53.562;10.032;2022-11-27T04:57:43;23.60;;;10.67;;
5989;SDS011;14149;53.562;10.032;2022-11-27T05:00:09;28.43;;;12.17;;
5989;SDS011;14149;53.562;10.032;2022-11-27T05:02:35;24.57;;;12.50;;
5989;SDS011;14149;53.562;10.032;2022-11-27T05:05:02;27.73;;;11.07;;
5989;SDS011;14149;53.562;10.032;2022-11-27T05:07:28;30.97;;;12.73;;
5989;SDS011;14149;53.562;10.032;2022-11-27T05:09:54;28.87;;;11.93;;
5989;SDS011;14149;53.562;10.032;2022-11-27T05:12:20;30.10;;;14.70;;
5989;SDS011;14149;53.562;10.032;2022-11-27T05:14:46;20.97;;;10.07;;
5989;SDS011;14149;53.562;10.032;2022-11-27T05:17:13;24.57;;;10.80;;
5989;SDS011;14149;53.562;10.032;2022-11-27T05:19:39;31.07;;;14.03;;
5989;SDS011;14149;53.562;10.032;2022-11-27T05:22:05;28.00;;;14.33;;
5989;SDS011;14149;53.562;10.032;2022-11-27T05:24:31;29.43;;;12.93;;
5989;SDS011;14149;53.562;10.032;2022-11-27T05:26:57;34.17;;;14.53;;
5989;SDS011;14149;53.562;10.032;2022-11-27T05:29:23;34.07;;;15.27;;
5989;SDS011;14149;53.562;10.032;2022-11-27T05:31:50;25.27;;;13.30;;
5989;SDS011;14149;53.562;10.032;2022-11-27T05:34:16;31.60;;;14.43;;
5989;SDS011;14149;53.562;10.032;2022-11-27T05:36:42;29.57;;;15.07;;
5989;SDS011;14149;53.562;10.032;2022-11-27T05:39:09;29.90;;;14.40;;
5989;SDS011;14149;53.562;10.032;2022-11-27T05:41:36;26.50;;;12.73;;
5989;SDS011;14149;53.562;10.032;2022-11-27T05:44:02;42.47;;;15.10;;
5989;SDS011;14149;53.562;10.032;2022-11-27T05:46:28;30.60;;;14.80;;
5989;SDS011;14149;53.562;10.032;2022-11-27T05:48:55;32.03;;;14.80;;
5989;SDS011;14149;53.562;10.032;2022-11-27T05:51:21;33.07;;;14.13;;
5989;SDS011;14149;53.562;10.032;2022-11-27T05:53:48;27.00;;;14.57;;
5989;SDS011;14149;53.562;10.032;2022-11-27T05:56:15;25.77;;;13.83;;
5989;SDS011;14149;53.562;10.032;2022-11-27T05:58:42;33.00;;;14.50;;
5989;SDS011;14149;53.562;10.032;2022-11-27T06:01:09;24.03;;;13.00;;
5989;SDS011;14149;53.562;10.032;2022-11-27T06:03:35;22.40;;;9.80;;
5989;SDS011;14149;53.562;10.032;2022-11-27T06:06:08;28.73;;;14.03;;
5989;SDS011;14149;53.562;10.032;2022-11-27T06:08:35;30.33;;;14.67;;
5989;SDS011;14149;53.562;10.032;2022-11-27T06:11:05;28.10;;;14.57;;
5989;SDS011;14149;53.562;10.032;2022-11-27T06:13:31;30.73;;;13.97;;
5989;SDS011;14149;53.562;10.032;2022-11-27T06:15:57;29.73;;;14.43;;
5989;SDS011;14149;53.562;10.032;2022-11-27T06:18:23;26.80;;;13.87;;
5989;SDS011;14149;53.562;10.032;2022-11-27T06:20:49;35.07;;;14.20;;
5989;SDS011;14149;53.562;10.032;2022-11-27T06:23:16;27.50;;;11.50;;
5989;SDS011;14149;53.562;10.032;2022-11-27T06:25:42;32.87;;;14.80;;
5989;SDS011;14149;53.562;10.032;2022-11-27T06:28:08;33.87;;;14.13;;
5989;SDS011;14149;53.562;10.032;2022-11-27T06:30:35;34.47;;;13.90;;
5989;SDS011;14149;53.562;10.032;2022-11-27T06:33:02;31.47;;;15.27;;
5989;SDS011;14149;53.562;10.032;2022-11-27T06:35:28;25.30;;;12.90;;
5989;SDS011;14149;53.562;10.032;2022-11-27T06:37:54;32.80;;;14.07;;
5989;SDS011;14149;53.562;10.032;2022-11-27T06:40:20;32.43;;;14.40;;
5989;SDS011;14149;53.562;10.032;2022-11-27T06:42:46;37.60;;;15.10;;
5989;SDS011;14149;53.562;10.032;2022-11-27T06:45:12;24.47;;;13.00;;
5989;SDS011;14149;53.562;10.032;2022-11-27T06:47:38;31.43;;;15.20;;
5989;SDS011;14149;53.562;10.032;2022-11-27T06:50:04;31.93;;;13.73;;
5989;SDS011;14149;53.562;10.032;2022-11-27T06:52:31;29.97;;;12.67;;
5989;SDS011;14149;53.562;10.032;2022-11-27T06:54:57;27.20;;;13.80;;
5989;SDS011;14149;53.562;10.032;2022-11-27T06:57:26;24.77;;;12.70;;
5989;SDS011;14149;53.562;10.032;2022-11-27T06:59:52;26.50;;;13.67;;
5989;SDS011;14149;53.562;10.032;2022-11-27T07:02:18;25.43;;;13.03;;
5989;SDS011;14149;53.562;10.032;2022-11-27T07:04:44;25.03;;;12.90;;
5989;SDS011;14149;53.562;10.032;2022-11-27T07:07:10;27.80;;;13.07;;
5989;SDS011;14149;53.562;10.032;2022-11-27T07:09:36;25.63;;;12.83;;
5989;SDS011;14149;53.562;10.032;2022-11-27T07:12:03;33.57;;;14.27;;
5989;SDS011;14149;53.562;10.032;2022-11-27T07:14:30;27.57;;;13.63;;
5989;SDS011;14149;53.562;10.032;2022-11-27T07:16:56;36.00;;;14.07;;
5989;SDS011;14149;53.562;10.032;2022-11-27T07:19:22;30.93;;;13.10;;
5989;SDS011;14149;53.562;10.032;2022-11-27T07:21:48;22.43;;;12.20;;
5989;SDS011;14149;53.562;10.032;2022-11-27T07:24:14;26.70;;;13.10;;
5989;SDS011;14149;53.562;10.032;2022-11-27T07:26:40;27.60;;;12.87;;
5989;SDS011;14149;53.562;10.032;2022-11-27T07:29:06;27.40;;;13.40;;
5989;SDS011;14149;53.562;10.032;2022-11-27T07:31:32;24.63;;;11.57;;
5989;SDS011;14149;53.562;10.032;2022-11-27T07:33:59;26.87;;;14.23;;
5989;SDS011;14149;53.562;10.032;2022-11-27T07:36:26;28.00;;;12.80;;
5989;SDS011;14149;53.562;10.032;2022-11-27T07:38:52;29.97;;;15.50;;
5989;SDS011;14149;53.562;10.032;2022-11-27T07:41:19;23.53;;;12.40;;
5989;SDS011;14149;53.562;10.032;2022-11-27T07:43:45;29.63;;;12.37;;
5989;SDS011;14149;53.562;10.032;2022-11-27T07:46:13;24.57;;;11.50;;
5989;SDS011;14149;53.562;10.032;2022-11-27T07:48:39;25.33;;;13.20;;
5989;SDS011;14149;53.562;10.032;2022-11-27T07:51:10;28.63;;;13.80;;
5989;SDS011;14149;53.562;10.032;2022-11-27T07:53:37;30.10;;;13.20;;
5989;SDS011;14149;53.562;10.032;2022-11-27T07:56:07;37.20;;;13.07;;
5989;SDS011;14149;53.562;10.032;2022-11-27T07:58:33;26.60;;;12.13;;
5989;SDS011;14149;53.562;10.032;2022-11-27T08:00:59;28.17;;;13.30;;
5989;SDS011;14149;53.562;10.032;2022-11-27T08:03:26;28.03;;;12.27;;
5989;SDS011;14149;53.562;10.032;2022-11-27T08:05:52;32.33;;;13.57;;
5989;SDS011;14149;53.562;10.032;2022-11-27T08:08:18;25.03;;;12.53;;
5989;SDS011;14149;53.562;10.032;2022-11-27T08:10:44;24.30;;;12.30;;
5989;SDS011;14149;53.562;10.032;2022-11-27T08:13:10;27.30;;;11.60;;
5989;SDS011;14149;53.562;10.032;2022-11-27T08:15:36;18.33;;;8.70;;
5989;SDS011;14149;53.562;10.032;2022-11-27T08:18:02;24.40;;;10.83;;
5989;SDS011;14149;53.562;10.032;2022-11-27T08:20:28;23.90;;;12.40;;
5989;SDS011;14149;53.562;10.032;2022-11-27T08:22:54;19.73;;;10.17;;
5989;SDS011;14149;53.562;10.032;2022-11-27T08:25:21;20.27;;;10.53;;
5989;SDS011;14149;53.562;10.032;2022-11-27T08:27:47;24.70;;;11.50;;
5989;SDS011;14149;53.562;10.032;2022-11-27T08:30:13;23.20;;;12.20;;
5989;SDS011;14149;53.562;10.032;2022-11-27T08:32:40;23.27;;;11.73;;
5989;SDS011;14149;53.562;10.032;2022-11-27T08:35:07;23.57;;;12.40;;
5989;SDS011;14149;53.562;10.032;2022-11-27T08:37:34;26.77;;;11.87;;
5989;SDS011;14149;53.562;10.032;2022-11-27T08:40:00;24.80;;;12.13;;
5989;SDS011;14149;53.562;10.032;2022-11-27T08:42:26;25.40;;;12.50;;
5989;SDS011;14149;53.562;10.032;2022-11-27T08:44:52;27.17;;;12.70;;
5989;SDS011;14149;53.562;10.032;2022-11-27T08:47:19;20.27;;;10.17;;
5989;SDS011;14149;53.562;10.032;2022-11-27T08:49:45;17.00;;;9.90;;
5989;SDS011;14149;53.562;10.032;2022-11-27T08:52:11;18.50;;;9.90;;
5989;SDS011;14149;53.562;10.032;2022-11-27T08:54:37;23.67;;;9.80;;
5989;SDS011;14149;53.562;10.032;2022-11-27T08:57:03;17.63;;;10.53;;
5989;SDS011;14149;53.562;10.032;2022-11-27T08:59:29;18.70;;;9.63;;
5989;SDS011;14149;53.562;10.032;2022-11-27T09:01:55;20.93;;;9.87;;
5989;SDS011;14149;53.562;10.032;2022-11-27T09:04:21;22.40;;;10.80;;
5989;SDS011;14149;53.562;10.032;2022-11-27T09:06:48;23.33;;;9.80;;
5989;SDS011;14149;53.562;10.032;2022-11-27T09:09:14;14.93;;;8.63;;
5989;SDS011;14149;53.562;10.032;2022-11-27T09:11:40;21.10;;;10.37;;
5989;SDS011;14149;53.562;10.032;2022-11-27T09:14:06;22.40;;;10.10;;
5989;SDS011;14149;53.562;10.032;2022-11-27T09:16:33;17.30;;;9.67;;
5989;SDS011;14149;53.562;10.032;2022-11-27T09:19:00;25.73;;;10.47;;
5989;SDS011;14149;53.562;10.032;2022-11-27T09:21:27;23.73;;;9.87;;
5989;SDS011;14149;53.562;10.032;2022-11-27T09:23:57;15.83;;;9.33;;
5989;SDS011;14149;53.562;10.032;2022-11-27T09:26:23;19.77;;;9.57;;
5989;SDS011;14149;53.562;10.032;2022-11-27T09:28:50;17.20;;;9.57;;
5989;SDS011;14149;53.562;10.032;2022-11-27T09:31:17;16.83;;;9.77;;
5989;SDS011;14149;53.562;10.032;2022-11-27T09:33:43;15.30;;;8.40;;
5989;SDS011;14149;53.562;10.032;2022-11-27T09:36:10;16.63;;;9.40;;
5989;SDS011;14149;53.562;10.032;2022-11-27T09:38:37;19.37;;;9.20;;
5989;SDS011;14149;53.562;10.032;2022-11-27T09:41:46;19.60;;;10.73;;
5989;SDS011;14149;53.562;10.032;2022-11-27T09:43:56;18.77;;;9.93;;
5989;SDS011;14149;53.562;10.032;2022-11-27T09:46:44;17.97;;;9.53;;
5989;SDS011;14149;53.562;10.032;2022-11-27T09:49:14;21.93;;;11.00;;
5989;SDS011;14149;53.562;10.032;2022-11-27T09:51:46;22.30;;;10.37;;
5989;SDS011;14149;53.562;10.032;2022-11-27T09:54:15;23.93;;;11.40;;
5989;SDS011;14149;53.562;10.032;2022-11-27T09:56:46;15.53;;;8.73;;
5989;SDS011;14149;53.562;10.032;2022-11-27T09:59:15;19.50;;;9.50;;
5989;SDS011;14149;53.562;10.032;2022-11-27T10:01:41;21.50;;;9.93;;
5989;SDS011;14149;53.562;10.032;2022-11-27T10:04:09;24.20;;;10.70;;
5989;SDS011;14149;53.562;10.032;2022-11-27T10:14:16;16.40;;;8.83;;
5989;SDS011;14149;53.562;10.032;2022-11-27T10:17:06;19.33;;;9.00;;
5989;SDS011;14149;53.562;10.032;2022-11-27T10:24:49;22.63;;;10.53;;
5989;SDS011;14149;53.562;10.032;2022-11-27T10:27:22;20.97;;;9.23;;
5989;SDS011;14149;53.562;10.032;2022-11-27T10:29:51;23.03;;;11.07;;
5989;SDS011;14149;53.562;10.032;2022-11-27T10:32:19;20.10;;;8.67;;
5989;SDS011;14149;53.562;10.032;2022-11-27T10:34:54;19.60;;;9.60;;
5989;SDS011;14149;53.562;10.032;2022-11-27T10:37:23;23.77;;;10.90;;
5989;SDS011;14149;53.562;10.032;2022-11-27T10:47:25;16.50;;;8.70;;
5989;SDS011;14149;53.562;10.032;2022-11-27T10:49:52;19.37;;;10.60;;
5989;SDS011;14149;53.562;10.032;2022-11-27T10:52:18;21.40;;;10.10;;
5989;SDS011;14149;53.562;10.032;2022-11-27T10:54:49;20.70;;;9.70;;
5989;SDS011;14149;53.562;10.032;2022-11-27T10:59:59;18.43;;;9.67;;
5989;SDS011;14149;53.562;10.032;2022-11-27T11:02:33;17.97;;;9.73;;
5989;SDS011;14149;53.562;10.032;2022-11-27T11:05:09;16.07;;;9.83;;
5989;SDS011;14149;53.562;10.032;2022-11-27T11:07:35;20.87;;;10.47;;
5989;SDS011;14149;53.562;10.032;2022-11-27T11:10:01;18.50;;;10.33;;
5989;SDS011;14149;53.562;10.032;2022-11-27T11:12:27;21.30;;;9.77;;
5989;SDS011;14149;53.562;10.032;2022-11-27T11:14:54;17.27;;;9.67;;
5989;SDS011;14149;53.562;10.032;2022-11-27T11:17:23;19.43;;;9.70;;
5989;SDS011;14149;53.562;10.032;2022-11-27T11:19:49;21.50;;;9.80;;
5989;SDS011;14149;53.562;10.032;2022-11-27T11:22:15;16.10;;;9.40;;
5989;SDS011;14149;53.562;10.032;2022-11-27T11:24:45;20.07;;;10.40;;
5989;SDS011;14149;53.562;10.032;2022-11-27T11:27:22;21.57;;;9.33;;
5989;SDS011;14149;53.562;10.032;2022-11-27T11:29:50;21.10;;;10.73;;
5989;SDS011;14149;53.562;10.032;2022-11-27T11:32:22;19.10;;;10.17;;
5989;SDS011;14149;53.562;10.032;2022-11-27T11:34:51;18.00;;;9.00;;
5989;SDS011;14149;53.562;10.032;2022-11-27T11:37:23;21.67;;;10.10;;
5989;SDS011;14149;53.562;10.032;2022-11-27T11:39:53;17.40;;;9.07;;
5989;SDS011;14149;53.562;10.032;2022-11-27T11:42:21;19.97;;;9.33;;
5989;SDS011;14149;53.562;10.032;2022-11-27T11:44:49;18.13;;;9.47;;
5989;SDS011;14149;53.562;10.032;2022-11-27T11:47:16;17.90;;;9.23;;
5989;SDS011;14149;53.562;10.032;2022-11-27T11:49:43;16.03;;;9.10;;
5989;SDS011;14149;53.562;10.032;2022-11-27T12:00:16;13.67;;;8.53;;
5989;SDS011;14149;53.562;10.032;2022-11-27T12:10:19;21.43;;;9.03;;
5989;SDS011;14149;53.562;10.032;2022-11-27T12:15:21;15.80;;;8.50;;
5989;SDS011;14149;53.562;10.032;2022-11-27T12:18:34;15.77;;;8.17;;
5989;SDS011;14149;53.562;10.032;2022-11-27T12:34:01;22.53;;;9.20;;
5989;SDS011;14149;53.562;10.032;2022-11-27T12:36:52;13.07;;;7.90;;
5989;SDS011;14149;53.562;10.032;2022-11-27T12:44:46;16.50;;;8.90;;
5989;SDS011;14149;53.562;10.032;2022-11-27T12:47:16;21.03;;;8.60;;
5989;SDS011;14149;53.562;10.032;2022-11-27T12:49:47;15.67;;;8.43;;
5989;SDS011;14149;53.562;10.032;2022-11-27T12:52:18;16.30;;;8.33;;
5989;SDS011;14149;53.562;10.032;2022-11-27T12:55:09;14.93;;;8.20;;
5989;SDS011;14149;53.562;10.032;2022-11-27T12:57:39;20.10;;;9.07;;
5989;SDS011;14149;53.562;10.032;2022-11-27T13:00:12;20.03;;;8.83;;
5989;SDS011;14149;53.562;10.032;2022-11-27T13:02:40;18.03;;;9.00;;
5989;SDS011;14149;53.562;10.032;2022-11-27T13:05:12;16.57;;;9.03;;
5989;SDS011;14149;53.562;10.032;2022-11-27T13:10:21;13.90;;;8.67;;
5989;SDS011;14149;53.562;10.032;2022-11-27T13:12:59;15.07;;;7.80;;
5989;SDS011;14149;53.562;10.032;2022-11-27T13:18:29;14.90;;;8.00;;
5989;SDS011;14149;53.562;10.032;2022-11-27T13:20:58;17.73;;;7.63;;
5989;SDS011;14149;53.562;10.032;2022-11-27T13:23:29;13.50;;;7.83;;
5989;SDS011;14149;53.562;10.032;2022-11-27T13:25:55;16.27;;;8.17;;
5989;SDS011;14149;53.562;10.032;2022-11-27T13:28:28;17.37;;;8.90;;
5989;SDS011;14149;53.562;10.032;2022-11-27T13:30:56;13.73;;;8.03;;
5989;SDS011;14149;53.562;10.032;2022-11-27T13:33:34;14.57;;;7.70;;
5989;SDS011;14149;53.562;10.032;2022-11-27T13:36:02;15.50;;;7.57;;
5989;SDS011;14149;53.562;10.032;2022-11-27T13:38:31;14.10;;;7.90;;
5989;SDS011;14149;53.562;10.032;2022-11-27T13:40:58;26.20;;;9.03;;
5989;SDS011;14149;53.562;10.032;2022-11-27T13:43:42;16.30;;;7.90;;
5989;SDS011;14149;53.562;10.032;2022-11-27T13:46:13;18.77;;;8.60;;
5989;SDS011;14149;53.562;10.032;2022-11-27T13:48:45;16.90;;;8.30;;
5989;SDS011;14149;53.562;10.032;2022-11-27T13:51:20;15.23;;;7.90;;
5989;SDS011;14149;53.562;10.032;2022-11-27T13:53:46;12.77;;;7.10;;
5989;SDS011;14149;53.562;10.032;2022-11-27T13:56:13;15.07;;;8.00;;
5989;SDS011;14149;53.562;10.032;2022-11-27T13:58:39;15.10;;;7.83;;
5989;SDS011;14149;53.562;10.032;2022-11-27T14:01:20;13.57;;;7.20;;
5989;SDS011;14149;53.562;10.032;2022-11-27T14:03:47;17.07;;;8.77;;
5989;SDS011;14149;53.562;10.032;2022-11-27T14:06:26;17.30;;;7.40;;
5989;SDS011;14149;53.562;10.032;2022-11-27T14:08:57;20.03;;;9.03;;
5989;SDS011;14149;53.562;10.032;2022-11-27T14:11:28;14.00;;;8.80;;
5989;SDS011;14149;53.562;10.032;2022-11-27T14:13:55;16.03;;;8.57;;
5989;SDS011;14149;53.562;10.032;2022-11-27T14:18:51;16.80;;;9.23;;
5989;SDS011;14149;53.562;10.032;2022-11-27T14:21:38;15.80;;;8.27;;
5989;SDS011;14149;53.562;10.032;2022-11-27T14:26:48;13.63;;;7.70;;
5989;SDS011;14149;53.562;10.032;2022-11-27T14:29:14;22.13;;;9.07;;
5989;SDS011;14149;53.562;10.032;2022-11-27T14:31:41;19.80;;;8.67;;
5989;SDS011;14149;53.562;10.032;2022-11-27T14:34:24;12.97;;;7.23;;
5989;SDS011;14149;53.562;10.032;2022-11-27T14:36:53;14.77;;;8.20;;
5989;SDS011;14149;53.562;10.032;2022-11-27T14:39:23;16.93;;;7.83;;
5989;SDS011;14149;53.562;10.032;2022-11-27T14:41:57;15.83;;;8.43;;
5989;SDS011;14149;53.562;10.032;2022-11-27T14:44:23;18.80;;;9.20;;
5989;SDS011;14149;53.562;10.032;2022-11-27T14:46:49;16.87;;;8.23;;
5989;SDS011;14149;53.562;10.032;2022-11-27T14:49:17;18.40;;;9.17;;
5989;SDS011;14149;53.562;10.032;2022-11-27T14:51:43;15.90;;;7.90;;
5989;SDS011;14149;53.562;10.032;2022-11-27T14:54:10;14.27;;;8.60;;
5989;SDS011;14149;53.562;10.032;2022-11-27T14:56:41;13.90;;;7.40;;
5989;SDS011;14149;53.562;10.032;2022-11-27T14:59:14;14.20;;;7.30;;
5989;SDS011;14149;53.562;10.032;2022-11-27T15:01:40;13.10;;;7.87;;
5989;SDS011;14149;53.562;10.032;2022-11-27T15:04:32;15.17;;;8.13;;
5989;SDS011;14149;53.562;10.032;2022-11-27T15:06:59;14.37;;;7.77;;
5989;SDS011;14149;53.562;10.032;2022-11-27T15:09:26;17.13;;;7.90;;
5989;SDS011;14149;53.562;10.032;2022-11-27T15:12:05;11.93;;;6.80;;
5989;SDS011;14149;53.562;10.032;2022-11-27T15:14:33;16.90;;;8.90;;
5989;SDS011;14149;53.562;10.032;2022-11-27T15:17:00;17.43;;;9.07;;
5989;SDS011;14149;53.562;10.032;2022-11-27T15:21:52;15.93;;;8.90;;
5989;SDS011;14149;53.562;10.032;2022-11-27T15:24:28;15.73;;;9.10;;
5989;SDS011;14149;53.562;10.032;2022-11-27T15:26:55;16.30;;;8.40;;
5989;SDS011;14149;53.562;10.032;2022-11-27T15:29:32;13.77;;;9.00;;
5989;SDS011;14149;53.562;10.032;2022-11-27T15:32:24;14.70;;;8.80;;
5989;SDS011;14149;53.562;10.032;2022-11-27T15:34:49;20.30;;;9.47;;
5989;SDS011;14149;53.562;10.032;2022-11-27T15:37:20;16.77;;;9.20;;
5989;SDS011;14149;53.562;10.032;2022-11-27T15:42:15;13.70;;;8.20;;
5989;SDS011;14149;53.562;10.032;2022-11-27T15:44:42;17.53;;;8.30;;
5989;SDS011;14149;53.562;10.032;2022-11-27T15:49:53;14.30;;;8.00;;
5989;SDS011;14149;53.562;10.032;2022-11-27T15:52:22;17.50;;;8.87;;
5989;SDS011;14149;53.562;10.032;2022-11-27T15:54:49;17.50;;;9.40;;
5989;SDS011;14149;53.562;10.032;2022-11-27T15:57:16;21.47;;;8.83;;
5989;SDS011;14149;53.562;10.032;2022-11-27T15:59:42;17.90;;;9.00;;
5989;SDS011;14149;53.562;10.032;2022-11-27T16:02:11;16.20;;;8.43;;
5989;SDS011;14149;53.562;10.032;2022-11-27T16:04:37;17.70;;;9.20;;
5989;SDS011;14149;53.562;10.032;2022-11-27T16:07:04;18.37;;;8.40;;
5989;SDS011;14149;53.562;10.032;2022-11-27T16:09:32;16.60;;;9.10;;
5989;SDS011;14149;53.562;10.032;2022-11-27T16:11:58;14.00;;;8.00;;
5989;SDS011;14149;53.562;10.032;2022-11-27T16:14:24;20.00;;;9.90;;
5989;SDS011;14149;53.562;10.032;2022-11-27T16:16:50;19.97;;;9.33;;
5989;SDS011;14149;53.562;10.032;2022-11-27T16:19:16;15.60;;;7.80;;
5989;SDS011;14149;53.562;10.032;2022-11-27T16:21:42;15.10;;;8.20;;